Time;durP1;ratioP1;P1;durP2;ratioP2;P2;SDS_P1;SDS_P2;PMS_P1;PMS_P2;Temp;Humidity;BMP_temperature;BMP_pressure;BME280_temperature;BME280_humidity;BME280_pressure;Samples;Min_cycle;Max_cycle;Signal;HPM_P1;HPM_P2
2023/07/06 00:01:24;;;;;;;6.53;2.70;;;;;;;;;;5132026;27;20193;-76
2023/07/06 00:03:51;;;;;;;6.80;2.93;;;;;;;;;;5131952;27;20304;-77
2023/07/06 00:06:18;;;;;;;6.47;3.10;;;;;;;;;;5132444;27;20676;-76
2023/07/06 00:08:46;;;;;;;5.50;2.90;;;;;;;;;;5131852;27;20283;-76
2023/07/06 00:11:13;;;;;;;7.60;2.60;;;;;;;;;;5132179;27;20193;-76
2023/07/06 00:13:40;;;;;;;5.87;2.67;;;;;;;;;;5131895;27;20307;-77
2023/07/06 00:16:08;;;;;;;7.43;2.90;;;;;;;;;;5132317;27;20326;-77
2023/07/06 00:18:37;;;;;;;6.00;2.37;;;;;;;;;;5131519;28;20771;-75
2023/07/06 00:21:04;;;;;;;4.43;2.77;;;;;;;;;;5131917;28;20193;-76
2023/07/06 00:23:31;;;;;;;5.57;3.20;;;;;;;;;;5132153;28;20189;-75
2023/07/06 00:25:58;;;;;;;8.93;3.47;;;;;;;;;;5131783;28;20204;-76
2023/07/06 00:28:28;;;;;;;6.27;2.90;;;;;;;;;;5133892;27;20296;-76
2023/07/06 00:31:06;;;;;;;6.10;3.23;;;;;;;;;;5135719;27;20204;-76
2023/07/06 00:33:34;;;;;;;7.13;3.43;;;;;;;;;;5135458;27;20724;-76
2023/07/06 00:36:03;;;;;;;7.57;3.80;;;;;;;;;;5135688;27;20642;-76
2023/07/06 00:38:30;;;;;;;5.70;2.87;;;;;;;;;;5136286;27;20200;-76
2023/07/06 00:40:58;;;;;;;5.90;3.00;;;;;;;;;;5135617;27;20221;-76
2023/07/06 00:43:26;;;;;;;5.23;3.17;;;;;;;;;;5135352;27;20288;-77
2023/07/06 00:45:55;;;;;;;6.43;3.50;;;;;;;;;;5135659;27;20199;-77
2023/07/06 00:48:26;;;;;;;7.97;3.23;;;;;;;;;;5135389;27;20286;-76
2023/07/06 00:50:56;;;;;;;8.40;3.30;;;;;;;;;;5135288;27;20225;-76
2023/07/06 00:53:27;;;;;;;7.50;3.07;;;;;;;;;;5135092;27;20235;-76
2023/07/06 00:55:58;;;;;;;8.00;2.93;;;;;;;;;;5135426;27;20197;-76
2023/07/06 00:58:28;;;;;;;5.33;3.07;;;;;;;;;;5135557;27;20297;-77
2023/07/06 01:00:58;;;;;;;6.73;3.60;;;;;;;;;;5135196;27;20288;-76
2023/07/06 01:03:25;;;;;;;9.23;3.20;;;;;;;;;;5135340;27;20224;-76
2023/07/06 01:05:54;;;;;;;4.70;2.87;;;;;;;;;;5135120;27;20748;-75
2023/07/06 01:08:22;;;;;;;5.50;3.00;;;;;;;;;;5134957;27;20288;-76
2023/07/06 01:10:52;;;;;;;6.33;2.93;;;;;;;;;;5134808;27;20217;-76
2023/07/06 01:13:20;;;;;;;5.57;2.80;;;;;;;;;;5135091;27;20632;-76
2023/07/06 01:15:50;;;;;;;5.17;3.10;;;;;;;;;;5134693;27;20208;-76
2023/07/06 01:18:21;;;;;;;7.13;3.07;;;;;;;;;;5135563;27;20296;-75
2023/07/06 01:20:53;;;;;;;7.73;3.73;;;;;;;;;;5135100;27;20285;-75
2023/07/06 01:23:38;;;;;;;7.17;3.43;;;;;;;;;;5134777;27;20680;-76
2023/07/06 01:26:20;;;;;;;6.77;3.83;;;;;;;;;;5134901;27;20197;-76
2023/07/06 01:28:59;;;;;;;7.50;3.40;;;;;;;;;;5134879;27;20296;-76
2023/07/06 01:31:30;;;;;;;7.37;3.53;;;;;;;;;;5134342;27;20287;-75
2023/07/06 01:34:00;;;;;;;6.53;3.90;;;;;;;;;;5134858;27;20217;-77
2023/07/06 01:36:34;;;;;;;8.93;4.53;;;;;;;;;;5135041;27;20271;-76
2023/07/06 01:39:14;;;;;;;7.17;3.77;;;;;;;;;;5134236;27;20189;-75
2023/07/06 01:41:42;;;;;;;6.63;4.30;;;;;;;;;;5134579;27;20287;-76
2023/07/06 01:44:10;;;;;;;8.03;4.40;;;;;;;;;;5134651;27;20300;-75
2023/07/06 01:46:38;;;;;;;9.10;3.87;;;;;;;;;;5134040;27;20193;-76
2023/07/06 01:49:06;;;;;;;5.40;3.40;;;;;;;;;;5134703;27;20203;-76
2023/07/06 01:51:38;;;;;;;6.37;3.87;;;;;;;;;;5134110;27;20669;-76
2023/07/06 01:54:09;;;;;;;8.57;4.00;;;;;;;;;;5134301;27;20252;-76
2023/07/06 01:56:38;;;;;;;8.53;3.20;;;;;;;;;;5134653;27;20208;-76
2023/07/06 01:59:07;;;;;;;5.13;3.60;;;;;;;;;;5134207;27;20203;-76
2023/07/06 02:01:38;;;;;;;8.17;3.83;;;;;;;;;;5134036;27;20288;-76
2023/07/06 02:04:07;;;;;;;7.10;3.77;;;;;;;;;;5134450;27;20724;-76
2023/07/06 02:06:35;;;;;;;6.23;3.70;;;;;;;;;;5134048;27;20568;-75
2023/07/06 02:09:03;;;;;;;6.10;3.90;;;;;;;;;;5134178;27;20201;-76
2023/07/06 02:11:32;;;;;;;5.67;3.27;;;;;;;;;;5134238;27;20197;-76
2023/07/06 02:13:59;;;;;;;6.40;3.20;;;;;;;;;;5133748;27;20234;-75
2023/07/06 02:16:26;;;;;;;6.47;2.83;;;;;;;;;;5133764;27;20288;-76
2023/07/06 02:18:55;;;;;;;5.13;3.30;;;;;;;;;;5133788;27;20300;-76
2023/07/06 02:21:24;;;;;;;6.13;3.57;;;;;;;;;;5133616;27;20262;-76
2023/07/06 02:23:51;;;;;;;4.80;3.07;;;;;;;;;;5134393;27;20265;-75
2023/07/06 02:26:18;;;;;;;9.27;3.90;;;;;;;;;;5133714;27;20221;-76
2023/07/06 02:28:45;;;;;;;8.70;4.00;;;;;;;;;;5127994;27;20288;-77
2023/07/06 02:31:12;;;;;;;5.33;4.03;;;;;;;;;;5121999;27;20202;-74
2023/07/06 02:33:39;;;;;;;6.43;3.90;;;;;;;;;;5112934;28;20236;-76
2023/07/06 02:36:07;;;;;;;9.83;3.80;;;;;;;;;;5113276;28;20198;-76
2023/07/06 02:38:36;;;;;;;8.03;3.80;;;;;;;;;;5113102;28;20225;-76
2023/07/06 02:41:04;;;;;;;8.77;4.40;;;;;;;;;;5112765;28;20201;-76
2023/07/06 02:43:31;;;;;;;6.53;3.80;;;;;;;;;;5112559;28;20194;-75
2023/07/06 02:45:59;;;;;;;9.30;4.03;;;;;;;;;;5112917;28;20190;-75
2023/07/06 02:48:26;;;;;;;8.03;4.13;;;;;;;;;;5112724;28;20529;-76
2023/07/06 02:50:53;;;;;;;6.90;3.67;;;;;;;;;;5111942;28;20308;-76
2023/07/06 02:53:21;;;;;;;9.50;4.40;;;;;;;;;;5112400;28;20957;-76
2023/07/06 02:55:51;;;;;;;8.40;4.27;;;;;;;;;;5113154;28;20190;-75
2023/07/06 02:58:19;;;;;;;7.97;4.10;;;;;;;;;;5112411;28;20193;-75
2023/07/06 03:00:47;;;;;;;6.10;3.67;;;;;;;;;;5111952;28;20672;-76
2023/07/06 03:03:15;;;;;;;7.07;4.03;;;;;;;;;;5112121;28;20562;-76
2023/07/06 03:05:44;;;;;;;6.87;4.17;;;;;;;;;;5112500;28;20212;-77
2023/07/06 03:08:11;;;;;;;10.10;4.10;;;;;;;;;;5112377;28;20233;-76
2023/07/06 03:10:39;;;;;;;4.40;3.10;;;;;;;;;;5112194;28;20284;-76
2023/07/06 03:13:07;;;;;;;6.07;3.27;;;;;;;;;;5111760;28;20712;-76
2023/07/06 03:15:35;;;;;;;7.27;3.50;;;;;;;;;;5119898;27;20279;-76
2023/07/06 03:18:02;;;;;;;4.53;3.27;;;;;;;;;;5132395;27;20235;-77
2023/07/06 03:20:29;;;;;;;6.50;3.40;;;;;;;;;;5132512;27;20218;-76
2023/07/06 03:22:56;;;;;;;6.13;3.53;;;;;;;;;;5133023;27;20193;-77
2023/07/06 03:25:25;;;;;;;6.30;3.40;;;;;;;;;;5132683;27;20189;-76
2023/07/06 03:27:53;;;;;;;6.53;3.70;;;;;;;;;;5132270;27;20281;-76
2023/07/06 03:30:22;;;;;;;6.70;3.37;;;;;;;;;;5132450;27;20203;-75
2023/07/06 03:32:49;;;;;;;7.40;3.90;;;;;;;;;;5132564;27;20239;-77
2023/07/06 03:35:16;;;;;;;7.07;3.40;;;;;;;;;;5132685;27;20228;-75
2023/07/06 03:37:45;;;;;;;7.17;4.10;;;;;;;;;;5132594;27;20280;-76
2023/07/06 03:40:14;;;;;;;8.90;3.87;;;;;;;;;;5132257;27;20204;-75
2023/07/06 03:42:42;;;;;;;7.07;3.70;;;;;;;;;;5131978;27;20250;-75
2023/07/06 03:45:10;;;;;;;7.07;3.90;;;;;;;;;;5132832;27;20199;-75
2023/07/06 03:47:39;;;;;;;6.37;3.50;;;;;;;;;;5132198;27;20193;-76
2023/07/06 03:50:09;;;;;;;6.97;3.30;;;;;;;;;;5132244;27;20323;-76
2023/07/06 03:52:37;;;;;;;6.97;3.13;;;;;;;;;;5132136;28;20204;-76
2023/07/06 03:55:05;;;;;;;7.13;4.00;;;;;;;;;;5132558;28;20236;-76
2023/07/06 03:57:32;;;;;;;5.03;3.70;;;;;;;;;;5132297;27;20606;-76
2023/07/06 04:00:00;;;;;;;8.23;3.00;;;;;;;;;;5132119;28;20679;-75
2023/07/06 04:02:27;;;;;;;4.30;2.90;;;;;;;;;;5132637;27;20661;-75
2023/07/06 04:04:55;;;;;;;4.57;2.93;;;;;;;;;;5136408;27;20283;-76
2023/07/06 04:07:23;;;;;;;5.33;3.20;;;;;;;;;;5136414;27;20199;-76
2023/07/06 04:09:50;;;;;;;5.17;3.40;;;;;;;;;;5136184;27;20426;-76
2023/07/06 04:12:17;;;;;;;10.07;4.17;;;;;;;;;;5136823;27;20228;-76
2023/07/06 04:14:44;;;;;;;5.07;3.60;;;;;;;;;;5136210;27;20224;-77
2023/07/06 04:17:11;;;;;;;6.80;3.80;;;;;;;;;;5136137;27;20249;-77
2023/07/06 04:19:39;;;;;;;6.27;3.43;;;;;;;;;;5136044;27;20197;-76
2023/07/06 04:22:07;;;;;;;7.07;3.87;;;;;;;;;;5136179;27;20292;-76
2023/07/06 04:24:34;;;;;;;5.47;3.83;;;;;;;;;;5136025;27;20284;-75
2023/07/06 04:27:01;;;;;;;6.60;3.87;;;;;;;;;;5135985;27;20318;-75
2023/07/06 04:29:29;;;;;;;5.77;3.30;;;;;;;;;;5135817;27;20287;-75
2023/07/06 04:31:57;;;;;;;7.93;3.57;;;;;;;;;;5135836;27;20193;-76
2023/07/06 04:34:24;;;;;;;7.23;3.33;;;;;;;;;;5135981;27;20312;-76
2023/07/06 04:36:51;;;;;;;5.60;3.67;;;;;;;;;;5136138;27;20287;-76
2023/07/06 04:39:20;;;;;;;7.07;3.80;;;;;;;;;;5135557;27;20200;-75
2023/07/06 04:41:48;;;;;;;7.00;3.47;;;;;;;;;;5135524;27;20212;-76
2023/07/06 04:44:18;;;;;;;7.07;3.70;;;;;;;;;;5135450;27;20201;-77
2023/07/06 04:46:45;;;;;;;5.80;4.07;;;;;;;;;;5135733;27;20250;-76
2023/07/06 04:49:12;;;;;;;7.53;4.43;;;;;;;;;;5135516;27;20316;-76
2023/07/06 04:51:40;;;;;;;6.10;3.93;;;;;;;;;;5135564;27;20283;-76
2023/07/06 04:54:08;;;;;;;6.53;3.90;;;;;;;;;;5134996;27;20213;-75
2023/07/06 04:56:37;;;;;;;6.00;3.30;;;;;;;;;;5135481;27;20276;-76
2023/07/06 04:59:04;;;;;;;5.43;3.43;;;;;;;;;;5135292;27;20851;-76
2023/07/06 05:01:32;;;;;;;5.37;3.17;;;;;;;;;;5135594;27;20647;-75
2023/07/06 05:03:59;;;;;;;5.87;3.17;;;;;;;;;;5135249;27;20696;-76
2023/07/06 05:06:26;;;;;;;4.17;2.87;;;;;;;;;;5135286;27;20817;-75
2023/07/06 05:08:53;;;;;;;3.57;2.70;;;;;;;;;;5134772;27;20959;-75
2023/07/06 05:11:21;;;;;;;4.37;2.90;;;;;;;;;;5135245;27;20197;-75
2023/07/06 05:13:49;;;;;;;5.63;3.30;;;;;;;;;;5134335;27;20274;-76
2023/07/06 05:16:16;;;;;;;5.73;4.17;;;;;;;;;;5135415;27;20283;-76
2023/07/06 05:18:44;;;;;;;5.37;3.40;;;;;;;;;;5135181;27;20221;-76
2023/07/06 05:21:11;;;;;;;6.33;3.53;;;;;;;;;;5135134;27;20193;-76
2023/07/06 05:23:40;;;;;;;5.33;3.40;;;;;;;;;;5134595;27;20297;-76
2023/07/06 05:26:08;;;;;;;4.37;3.33;;;;;;;;;;5135059;27;20197;-76
2023/07/06 05:28:35;;;;;;;7.77;3.60;;;;;;;;;;5134639;27;20242;-76
2023/07/06 05:31:04;;;;;;;5.97;3.20;;;;;;;;;;5134683;27;20225;-76
2023/07/06 05:33:32;;;;;;;5.43;3.30;;;;;;;;;;5134826;27;20258;-76
2023/07/06 05:35:59;;;;;;;4.50;3.50;;;;;;;;;;5134562;27;20233;-76
2023/07/06 05:38:27;;;;;;;7.13;3.70;;;;;;;;;;5134268;27;20193;-78
2023/07/06 05:40:54;;;;;;;4.53;3.20;;;;;;;;;;5134416;27;20288;-76
2023/07/06 05:43:22;;;;;;;4.37;3.37;;;;;;;;;;5134491;27;20292;-76
2023/07/06 05:45:49;;;;;;;7.13;3.57;;;;;;;;;;5134616;27;20228;-77
2023/07/06 05:48:18;;;;;;;7.23;3.80;;;;;;;;;;5134617;27;20197;-75
2023/07/06 05:50:45;;;;;;;6.33;3.90;;;;;;;;;;5134281;27;20229;-76
2023/07/06 05:53:13;;;;;;;8.23;3.63;;;;;;;;;;5134446;27;20614;-77
2023/07/06 05:55:43;;;;;;;8.43;3.63;;;;;;;;;;5134777;27;20224;-76
2023/07/06 05:58:10;;;;;;;6.07;3.50;;;;;;;;;;5134091;27;20280;-75
2023/07/06 06:00:40;;;;;;;8.63;4.03;;;;;;;;;;5134432;27;20300;-77
2023/07/06 06:03:07;;;;;;;5.10;3.57;;;;;;;;;;5107772;27;20297;-77
2023/07/06 06:05:36;;;;;;;7.90;3.90;;;;;;;;;;5124588;27;20251;-76
2023/07/06 06:08:03;;;;;;;7.77;4.23;;;;;;;;;;5133602;27;20242;-75
2023/07/06 06:10:31;;;;;;;7.07;3.50;;;;;;;;;;5133849;27;20287;-76
2023/07/06 06:12:58;;;;;;;9.10;3.87;;;;;;;;;;5133671;27;20288;-76
2023/07/06 06:15:27;;;;;;;9.90;3.43;;;;;;;;;;5133571;27;20739;-76
2023/07/06 06:17:54;;;;;;;6.03;3.63;;;;;;;;;;5133694;27;20197;-76
2023/07/06 06:20:21;;;;;;;7.37;3.50;;;;;;;;;;5133542;27;20283;-76
2023/07/06 06:22:51;;;;;;;5.70;3.53;;;;;;;;;;5133113;27;20200;-77
2023/07/06 06:25:19;;;;;;;6.38;3.60;;;;;;;;;;5132623;27;20224;-76
2023/07/06 06:27:47;;;;;;;5.45;2.90;;;;;;;;;;5133908;27;20672;-77
2023/07/06 06:30:15;;;;;;;4.00;2.88;;;;;;;;;;5133299;27;20207;-76
2023/07/06 06:32:43;;;;;;;4.22;2.70;;;;;;;;;;5133539;27;20194;-76
2023/07/06 06:35:22;;;;;;;3.80;2.40;;;;;;;;;;5133480;27;20328;-76
2023/07/06 06:37:51;;;;;;;3.53;2.40;;;;;;;;;;5133054;27;20279;-76
2023/07/06 06:40:19;;;;;;;6.00;2.72;;;;;;;;;;5132822;27;20200;-76
2023/07/06 06:42:47;;;;;;;5.15;2.38;;;;;;;;;;5132884;27;20288;-76
2023/07/06 06:45:14;;;;;;;7.13;2.83;;;;;;;;;;5133034;27;20234;-77
2023/07/06 06:47:42;;;;;;;4.47;2.50;;;;;;;;;;5132555;27;20284;-76
2023/07/06 06:50:09;;;;;;;6.35;2.33;;;;;;;;;;5132568;27;20337;-76
2023/07/06 06:52:36;;;;;;;5.72;2.38;;;;;;;;;;5132482;27;20200;-76
2023/07/06 06:55:05;;;;;;;2.80;1.73;;;;;;;;;;5132729;27;20260;-76
2023/07/06 06:57:33;;;;;;;4.80;1.90;;;;;;;;;;5132949;27;20193;-75
2023/07/06 07:00:00;;;;;;;4.45;1.60;;;;;;;;;;5132874;27;20220;-76
2023/07/06 07:02:27;;;;;;;3.78;1.60;;;;;;;;;;5132287;27;20741;-76
2023/07/06 07:04:59;;;;;;;4.35;1.75;;;;;;;;;;5132074;27;20312;-77
2023/07/06 07:07:27;;;;;;;3.38;1.58;;;;;;;;;;5132166;27;20714;-76
2023/07/06 07:09:54;;;;;;;2.75;1.70;;;;;;;;;;5132714;27;20196;-76
2023/07/06 07:12:23;;;;;;;3.20;1.70;;;;;;;;;;5132418;27;20283;-75
2023/07/06 07:14:50;;;;;;;3.78;1.80;;;;;;;;;;5132710;27;20273;-76
2023/07/06 07:17:17;;;;;;;3.35;1.77;;;;;;;;;;5132530;27;20216;-76
2023/07/06 07:19:45;;;;;;;3.10;1.80;;;;;;;;;;5131877;27;20257;-77
2023/07/06 07:22:12;;;;;;;3.80;1.63;;;;;;;;;;5132217;27;20192;-77
2023/07/06 07:24:39;;;;;;;3.35;1.98;;;;;;;;;;5131946;27;20239;-77
2023/07/06 07:27:08;;;;;;;4.03;1.80;;;;;;;;;;5132239;27;20193;-77
2023/07/06 07:29:37;;;;;;;3.05;1.45;;;;;;;;;;5131976;27;20254;-78
2023/07/06 07:32:04;;;;;;;3.35;1.60;;;;;;;;;;5131748;27;20285;-76
2023/07/06 07:34:32;;;;;;;2.83;1.42;;;;;;;;;;5131704;27;20312;-74
2023/07/06 07:37:00;;;;;;;2.63;1.55;;;;;;;;;;5131988;27;20197;-77
2023/07/06 07:39:27;;;;;;;3.15;1.40;;;;;;;;;;5132283;27;20247;-77
2023/07/06 07:41:54;;;;;;;1.63;1.25;;;;;;;;;;5132027;27;20204;-76
2023/07/06 07:44:23;;;;;;;17.38;13.63;;;;;;;;;;5132035;27;20915;-77
2023/07/06 07:46:51;;;;;;;3.47;2.28;;;;;;;;;;5131690;27;20193;-77
2023/07/06 07:49:18;;;;;;;1.60;1.20;;;;;;;;;;5131911;27;20232;-76
2023/07/06 07:51:46;;;;;;;2.45;1.30;;;;;;;;;;5131258;27;20231;-77
2023/07/06 07:54:13;;;;;;;2.13;1.25;;;;;;;;;;5131991;27;20620;-77
2023/07/06 07:56:42;;;;;;;2.30;1.25;;;;;;;;;;5131651;27;20193;-76
2023/07/06 07:59:10;;;;;;;2.50;1.30;;;;;;;;;;5132151;27;20292;-75
2023/07/06 08:01:37;;;;;;;1.77;1.20;;;;;;;;;;5131389;27;20197;-76
2023/07/06 08:04:06;;;;;;;1.58;1.10;;;;;;;;;;5131580;27;20197;-77
2023/07/06 08:06:34;;;;;;;2.08;1.10;;;;;;;;;;5131852;27;20208;-77
2023/07/06 08:09:05;;;;;;;2.28;1.33;;;;;;;;;;5131669;27;20276;-76
2023/07/06 08:11:33;;;;;;;1.30;1.10;;;;;;;;;;5131901;27;20207;-76
2023/07/06 08:14:00;;;;;;;2.30;1.00;;;;;;;;;;5132063;27;20272;-77
2023/07/06 08:16:28;;;;;;;1.85;1.00;;;;;;;;;;5131584;27;20229;-77
2023/07/06 08:18:55;;;;;;;2.53;1.17;;;;;;;;;;5131728;28;20216;-76
2023/07/06 08:21:25;;;;;;;2.10;1.20;;;;;;;;;;5131915;28;20224;-77
2023/07/06 08:23:54;;;;;;;2.85;1.30;;;;;;;;;;5131496;27;20197;-78
2023/07/06 08:26:22;;;;;;;1.70;1.13;;;;;;;;;;5131866;28;20205;-77
2023/07/06 08:28:49;;;;;;;1.40;1.10;;;;;;;;;;5131879;28;20225;-77
2023/07/06 08:31:17;;;;;;;2.33;1.25;;;;;;;;;;5131287;28;20276;-77
2023/07/06 08:33:46;;;;;;;1.95;1.20;;;;;;;;;;5131332;28;20785;-77
2023/07/06 08:36:15;;;;;;;2.17;1.30;;;;;;;;;;5131227;27;20724;-78
2023/07/06 08:38:44;;;;;;;2.75;1.65;;;;;;;;;;5131519;28;20197;-78
2023/07/06 08:41:12;;;;;;;5.97;1.60;;;;;;;;;;5131294;27;20681;-78
2023/07/06 08:43:41;;;;;;;3.28;1.33;;;;;;;;;;5131938;27;20197;-76
2023/07/06 08:46:11;;;;;;;2.42;1.45;;;;;;;;;;5130696;28;20201;-78
2023/07/06 08:48:38;;;;;;;3.53;1.30;;;;;;;;;;5131802;27;20201;-77
2023/07/06 08:51:12;;;;;;;4.35;1.65;;;;;;;;;;5134880;27;20312;-77
2023/07/06 08:53:40;;;;;;;2.28;1.40;;;;;;;;;;5135195;27;20201;-77
2023/07/06 08:56:12;;;;;;;3.60;1.50;;;;;;;;;;5135383;27;20328;-78
2023/07/06 08:58:41;;;;;;;2.05;1.38;;;;;;;;;;5135020;27;20201;-77
2023/07/06 09:01:11;;;;;;;3.20;1.20;;;;;;;;;;5134664;27;20189;-78
2023/07/06 09:03:39;;;;;;;2.58;1.35;;;;;;;;;;5134974;27;20189;-77
2023/07/06 09:06:06;;;;;;;2.47;1.48;;;;;;;;;;5135070;27;20198;-78
2023/07/06 09:08:33;;;;;;;4.18;1.73;;;;;;;;;;5134736;27;20228;-77
2023/07/06 09:11:02;;;;;;;3.03;1.50;;;;;;;;;;5134620;27;20193;-78
2023/07/06 09:13:36;;;;;;;4.18;2.28;;;;;;;;;;5134723;27;20700;-76
2023/07/06 09:16:04;;;;;;;4.15;1.85;;;;;;;;;;5134061;27;20221;-76
2023/07/06 09:18:31;;;;;;;3.83;1.90;;;;;;;;;;5134355;27;20530;-77
2023/07/06 09:20:59;;;;;;;2.55;1.65;;;;;;;;;;5134468;27;20567;-78
2023/07/06 09:23:26;;;;;;;3.97;1.90;;;;;;;;;;5134808;27;20283;-78
2023/07/06 09:25:55;;;;;;;2.28;1.58;;;;;;;;;;5134639;27;20224;-76
2023/07/06 09:28:25;;;;;;;3.70;1.95;;;;;;;;;;5134365;27;20204;-77
2023/07/06 09:31:07;;;;;;;3.88;1.90;;;;;;;;;;5134022;27;20193;-78
2023/07/06 09:33:34;;;;;;;4.72;1.88;;;;;;;;;;5134142;27;20197;-77
2023/07/06 09:36:01;;;;;;;4.10;2.03;;;;;;;;;;5133553;27;20765;-78
2023/07/06 09:38:30;;;;;;;2.80;1.65;;;;;;;;;;5134577;27;20287;-78
2023/07/06 09:40:57;;;;;;;3.05;1.98;;;;;;;;;;5133821;27;20286;-77
2023/07/06 09:43:26;;;;;;;3.45;1.60;;;;;;;;;;5133583;27;20229;-77
2023/07/06 09:45:54;;;;;;;3.45;1.80;;;;;;;;;;5133627;27;20197;-78
2023/07/06 09:48:28;;;;;;;2.35;1.85;;;;;;;;;;5133827;27;20204;-78
2023/07/06 09:50:57;;;;;;;4.47;1.90;;;;;;;;;;5133901;27;20287;-77
2023/07/06 09:53:26;;;;;;;2.28;1.70;;;;;;;;;;5133974;27;20189;-78
2023/07/06 09:55:54;;;;;;;3.85;1.73;;;;;;;;;;5133926;27;20248;-78
2023/07/06 09:58:24;;;;;;;3.45;1.83;;;;;;;;;;5133440;27;20197;-78
2023/07/06 10:00:53;;;;;;;3.38;2.30;;;;;;;;;;5134158;27;20296;-77
2023/07/06 10:03:33;;;;;;;4.55;1.70;;;;;;;;;;5133148;27;20669;-78
2023/07/06 10:06:07;;;;;;;4.28;1.83;;;;;;;;;;5133354;27;20700;-78
2023/07/06 10:08:36;;;;;;;4.47;2.15;;;;;;;;;;5133191;27;20207;-77
2023/07/06 10:11:09;;;;;;;4.30;2.20;;;;;;;;;;5133053;27;20642;-77
2023/07/06 10:13:38;;;;;;;2.08;1.67;;;;;;;;;;5133501;27;20691;-78
2023/07/06 10:16:11;;;;;;;4.05;2.00;;;;;;;;;;5133607;27;20224;-79
2023/07/06 10:18:42;;;;;;;3.53;1.80;;;;;;;;;;5133349;27;20193;-79
2023/07/06 10:21:14;;;;;;;3.38;1.90;;;;;;;;;;5133709;27;20283;-77
2023/07/06 10:23:44;;;;;;;5.05;2.10;;;;;;;;;;5133940;27;20198;-77
2023/07/06 10:26:17;;;;;;;4.25;1.73;;;;;;;;;;5133629;27;20197;-78
2023/07/06 10:28:47;;;;;;;4.03;1.83;;;;;;;;;;5133326;27;20197;-77
2023/07/06 10:31:17;;;;;;;2.67;1.70;;;;;;;;;;5132995;27;20732;-78
2023/07/06 10:33:47;;;;;;;2.92;1.80;;;;;;;;;;5133604;27;20657;-77
2023/07/06 10:36:16;;;;;;;3.00;1.70;;;;;;;;;;5133339;27;20233;-76
2023/07/06 10:38:44;;;;;;;3.28;1.90;;;;;;;;;;5132799;27;20284;-76
2023/07/06 10:41:27;;;;;;;3.33;1.52;;;;;;;;;;5133574;27;20299;-75
2023/07/06 10:43:59;;;;;;;2.70;1.67;;;;;;;;;;5132992;27;20197;-77
2023/07/06 10:46:33;;;;;;;3.53;1.80;;;;;;;;;;5133035;27;20205;-77
2023/07/06 10:49:18;;;;;;;8.52;1.80;;;;;;;;;;5133260;27;20554;-77
2023/07/06 10:51:48;;;;;;;2.50;1.65;;;;;;;;;;5133043;27;20316;-78
2023/07/06 10:54:18;;;;;;;3.03;1.70;;;;;;;;;;5133038;27;20205;-76
2023/07/06 10:56:47;;;;;;;6.35;1.70;;;;;;;;;;5132439;27;20229;-77
2023/07/06 10:59:16;;;;;;;3.45;2.15;;;;;;;;;;5133125;27;20231;-77
2023/07/06 11:01:45;;;;;;;2.33;1.75;;;;;;;;;;5132590;27;20738;-78
2023/07/06 11:04:30;;;;;;;2.80;1.67;;;;;;;;;;5132916;27;20198;-77
2023/07/06 11:07:00;;;;;;;2.88;1.77;;;;;;;;;;5132331;27;20291;-78
2023/07/06 11:09:28;;;;;;;2.45;1.80;;;;;;;;;;5132621;27;20288;-76
2023/07/06 11:12:05;;;;;;;3.30;1.95;;;;;;;;;;5132046;27;20222;-77
2023/07/06 11:14:39;;;;;;;3.67;1.85;;;;;;;;;;5131156;27;20291;-78
2023/07/06 11:17:13;;;;;;;2.50;1.90;;;;;;;;;;5132336;27;20599;-77
2023/07/06 11:19:49;;;;;;;2.72;1.60;;;;;;;;;;5125966;27;20209;-78
2023/07/06 11:22:20;;;;;;;3.78;1.88;;;;;;;;;;5128146;27;20895;-77
2023/07/06 11:24:49;;;;;;;3.88;1.80;;;;;;;;;;5127436;27;20253;-77
2023/07/06 11:27:24;;;;;;;2.85;1.65;;;;;;;;;;5127844;27;20295;-78
2023/07/06 11:29:54;;;;;;;3.33;1.77;;;;;;;;;;5127224;27;20739;-78
2023/07/06 11:32:25;;;;;;;5.72;2.05;;;;;;;;;;5127960;27;20653;-77
2023/07/06 11:35:04;;;;;;;2.70;1.67;;;;;;;;;;5126545;27;20246;-76
2023/07/06 11:37:40;;;;;;;3.97;1.65;;;;;;;;;;5128757;27;20235;-78
2023/07/06 11:40:15;;;;;;;4.43;2.00;;;;;;;;;;5129073;27;20209;-77
2023/07/06 11:42:49;;;;;;;3.10;1.63;;;;;;;;;;5127032;27;20279;-77
2023/07/06 11:45:20;;;;;;;4.38;1.90;;;;;;;;;;5126960;27;20189;-78
2023/07/06 11:47:54;;;;;;;2.90;2.10;;;;;;;;;;5125863;27;20276;-78
2023/07/06 11:50:22;;;;;;;3.70;2.30;;;;;;;;;;5144277;27;20220;-77
2023/07/06 11:52:58;;;;;;;3.05;2.20;;;;;;;;;;5138495;27;20193;-77
2023/07/06 11:55:34;;;;;;;2.92;1.80;;;;;;;;;;5145814;27;20192;-76
2023/07/06 11:58:07;;;;;;;2.40;1.65;;;;;;;;;;5131300;27;20205;-77
2023/07/06 12:00:52;;;;;;;2.50;1.70;;;;;;;;;;5148490;27;20192;-77
2023/07/06 12:03:20;;;;;;;2.53;1.73;;;;;;;;;;5130447;27;20197;-77
2023/07/06 12:05:49;;;;;;;4.35;2.20;;;;;;;;;;5142777;27;20300;-77
2023/07/06 12:08:20;;;;;;;2.72;1.90;;;;;;;;;;5144671;27;20235;-77
2023/07/06 12:10:48;;;;;;;3.28;2.10;;;;;;;;;;5134809;27;20636;-77
2023/07/06 12:13:19;;;;;;;3.25;2.05;;;;;;;;;;5141217;27;20192;-77
2023/07/06 12:15:47;;;;;;;4.20;1.88;;;;;;;;;;5131908;27;20203;-79
2023/07/06 12:18:15;;;;;;;6.45;2.03;;;;;;;;;;5145005;27;20192;-78
2023/07/06 12:20:43;;;;;;;3.95;1.50;;;;;;;;;;5136225;27;20221;-78
2023/07/06 12:23:12;;;;;;;3.30;1.92;;;;;;;;;;5148232;27;20185;-78
2023/07/06 12:25:42;;;;;;;4.38;1.90;;;;;;;;;;5144532;27;20683;-78
2023/07/06 12:28:11;;;;;;;2.67;2.13;;;;;;;;;;5137174;27;20288;-78
2023/07/06 12:30:39;;;;;;;4.00;1.80;;;;;;;;;;5152486;27;20275;-78
2023/07/06 12:33:08;;;;;;;3.28;2.13;;;;;;;;;;5122587;27;20245;-77
2023/07/06 12:35:36;;;;;;;3.85;2.08;;;;;;;;;;5148146;27;20284;-78
2023/07/06 12:38:06;;;;;;;3.38;1.90;;;;;;;;;;5146234;27;20260;-77
2023/07/06 12:40:34;;;;;;;3.53;1.80;;;;;;;;;;5140565;27;20199;-78
2023/07/06 12:43:03;;;;;;;4.43;2.30;;;;;;;;;;5154938;27;20195;-78
2023/07/06 12:45:31;;;;;;;3.58;1.73;;;;;;;;;;5148855;27;20193;-77
2023/07/06 12:47:59;;;;;;;2.78;1.90;;;;;;;;;;5146196;27;20192;-78
2023/07/06 12:50:31;;;;;;;3.83;2.00;;;;;;;;;;5140675;27;20225;-78
2023/07/06 12:53:03;;;;;;;2.97;1.60;;;;;;;;;;5151777;27;20197;-77
2023/07/06 12:55:32;;;;;;;3.47;2.13;;;;;;;;;;5141901;27;20275;-77
2023/07/06 12:58:14;;;;;;;4.75;1.92;;;;;;;;;;5144868;27;20229;-78
2023/07/06 13:00:47;;;;;;;2.08;1.75;;;;;;;;;;5149511;27;20291;-77
2023/07/06 13:03:14;;;;;;;3.58;1.73;;;;;;;;;;5140657;27;20193;-77
2023/07/06 13:05:41;;;;;;;3.38;1.90;;;;;;;;;;5148149;27;20201;-78
2023/07/06 13:08:15;;;;;;;3.53;2.03;;;;;;;;;;5146738;27;20227;-78
2023/07/06 13:10:45;;;;;;;4.20;1.95;;;;;;;;;;5138521;27;20238;-77
2023/07/06 13:13:19;;;;;;;3.38;1.92;;;;;;;;;;5150924;27;20296;-78
2023/07/06 13:15:48;;;;;;;2.80;1.88;;;;;;;;;;5134689;27;20204;-76
2023/07/06 13:18:16;;;;;;;3.38;2.20;;;;;;;;;;5147795;27;20261;-77
2023/07/06 13:20:44;;;;;;;3.60;1.95;;;;;;;;;;5154327;27;20197;-78
2023/07/06 13:23:11;;;;;;;3.45;2.20;;;;;;;;;;5138382;27;20700;-77
2023/07/06 13:25:41;;;;;;;2.67;2.03;;;;;;;;;;5150918;27;20664;-77
2023/07/06 13:28:11;;;;;;;3.42;2.17;;;;;;;;;;5137071;27;20261;-77
2023/07/06 13:30:40;;;;;;;3.33;2.10;;;;;;;;;;5146523;27;20193;-77
2023/07/06 13:33:12;;;;;;;2.10;1.80;;;;;;;;;;5146341;27;20680;-78
2023/07/06 13:35:39;;;;;;;2.88;2.00;;;;;;;;;;5136611;27;20193;-78
2023/07/06 13:38:07;;;;;;;2.78;1.80;;;;;;;;;;5120860;27;20304;-77
2023/07/06 13:40:37;;;;;;;2.90;1.90;;;;;;;;;;5154834;27;20657;-77
2023/07/06 13:43:04;;;;;;;3.55;2.03;;;;;;;;;;5152349;27;20249;-77
2023/07/06 13:45:36;;;;;;;3.38;1.88;;;;;;;;;;5138902;27;20688;-77
2023/07/06 13:48:03;;;;;;;3.08;1.80;;;;;;;;;;5150658;27;20289;-77
2023/07/06 13:50:32;;;;;;;3.33;2.28;;;;;;;;;;5133273;27;20257;-78
2023/07/06 13:52:59;;;;;;;3.88;1.92;;;;;;;;;;5145225;27;20193;-78
2023/07/06 13:55:29;;;;;;;5.00;1.90;;;;;;;;;;5139152;27;20284;-78
2023/07/06 13:57:56;;;;;;;4.40;2.10;;;;;;;;;;5150948;27;20319;-77
2023/07/06 14:00:24;;;;;;;3.35;1.95;;;;;;;;;;5139460;27;20192;-77
2023/07/06 14:02:51;;;;;;;2.92;1.80;;;;;;;;;;5144776;27;20197;-77
2023/07/06 14:05:21;;;;;;;2.95;2.00;;;;;;;;;;5147314;27;20283;-77
2023/07/06 14:07:49;;;;;;;2.78;1.70;;;;;;;;;;5137046;27;20201;-78
2023/07/06 14:10:17;;;;;;;2.78;1.90;;;;;;;;;;5149053;27;20284;-79
2023/07/06 14:12:44;;;;;;;4.32;2.00;;;;;;;;;;5141872;27;20203;-78
2023/07/06 14:15:11;;;;;;;4.13;2.20;;;;;;;;;;5141693;27;20193;-78
2023/07/06 14:17:42;;;;;;;4.30;2.13;;;;;;;;;;5143837;27;20730;-79
2023/07/06 14:20:10;;;;;;;2.50;1.90;;;;;;;;;;5131645;27;20284;-78
2023/07/06 14:22:37;;;;;;;5.35;2.28;;;;;;;;;;5135969;27;20229;-77
2023/07/06 14:25:12;;;;;;;3.38;2.17;;;;;;;;;;5154061;27;20708;-77
2023/07/06 14:27:39;;;;;;;3.83;2.00;;;;;;;;;;5154047;27;20336;-78
2023/07/06 14:30:07;;;;;;;2.85;1.98;;;;;;;;;;5151080;27;20287;-76
2023/07/06 14:32:34;;;;;;;2.55;1.83;;;;;;;;;;5133012;27;20284;-77
2023/07/06 14:35:01;;;;;;;4.60;2.17;;;;;;;;;;5149411;27;20223;-78
2023/07/06 14:37:28;;;;;;;3.17;2.15;;;;;;;;;;5133207;27;20256;-77
2023/07/06 14:39:56;;;;;;;6.70;2.25;;;;;;;;;;5132558;27;20233;-77
2023/07/06 14:42:24;;;;;;;3.08;1.90;;;;;;;;;;5133025;27;20834;-78
2023/07/06 14:44:52;;;;;;;3.70;1.83;;;;;;;;;;5132273;27;20240;-78
2023/07/06 14:47:19;;;;;;;5.45;2.08;;;;;;;;;;5131899;27;20292;-78
2023/07/06 14:49:46;;;;;;;3.67;1.90;;;;;;;;;;5132315;27;20291;-77
2023/07/06 14:52:13;;;;;;;3.45;1.88;;;;;;;;;;5132904;27;20879;-79
2023/07/06 14:54:41;;;;;;;2.75;2.15;;;;;;;;;;5132589;27;20647;-78